Time;durP1;ratioP1;P1;durP2;ratioP2;P2;SDS_P1;SDS_P2;PMS_P1;PMS_P2;Temp;Humidity;BMP_temperature;BMP_pressure;BME280_temperature;BME280_humidity;BME280_pressure;Samples;Min_cycle;Max_cycle;Signal;HPM_P1;HPM_P2
2023/09/29 00:02:18;;;;;;;14.38;7.68;;;;;;;20.44;58.29;101537.50;5073340;28;20031;-48
2023/09/29 00:04:44;;;;;;;13.18;7.85;;;;;;;20.43;58.00;101527.66;5065032;28;20033;-48
2023/09/29 00:07:10;;;;;;;9.93;6.05;;;;;;;20.43;58.17;101522.25;5075519;28;20028;-51
2023/09/29 00:09:35;;;;;;;12.35;7.20;;;;;;;20.42;57.97;101517.88;5073962;28;20088;-50
2023/09/29 00:12:00;;;;;;;12.75;7.18;;;;;;;20.43;58.42;101527.66;5072713;28;20044;-49
2023/09/29 00:14:26;;;;;;;9.80;6.00;;;;;;;20.39;58.00;101515.50;5076329;28;20040;-48
2023/09/29 00:16:51;;;;;;;11.75;6.45;;;;;;;20.42;58.42;101524.13;5076543;28;20114;-50
2023/09/29 00:19:17;;;;;;;10.20;6.25;;;;;;;20.42;58.05;101510.63;5072909;28;20029;-48
2023/09/29 00:21:42;;;;;;;10.27;5.82;;;;;;;20.41;58.21;101514.34;5071679;28;20036;-51
2023/09/29 00:24:07;;;;;;;10.60;6.00;;;;;;;20.41;58.05;101514.34;5074909;28;20092;-50
2023/09/29 00:26:33;;;;;;;10.52;6.22;;;;;;;20.42;57.99;101517.88;5071847;28;20033;-49
2023/09/29 00:28:59;;;;;;;11.65;6.32;;;;;;;20.34;57.92;101499.78;5077636;28;20039;-50
2023/09/29 00:31:24;;;;;;;10.88;6.05;;;;;;;20.16;57.85;101475.59;5072959;28;20033;-50
2023/09/29 00:33:49;;;;;;;11.27;6.15;;;;;;;20.40;58.04;101518.06;5070128;28;20031;-48
2023/09/29 00:36:15;;;;;;;12.02;6.57;;;;;;;20.41;58.10;101522.44;5073433;28;20612;-49
2023/09/29 00:38:40;;;;;;;11.07;6.32;;;;;;;20.40;57.81;101520.75;5073915;28;20033;-48
2023/09/29 00:41:06;;;;;;;8.52;5.28;;;;;;;20.40;58.26;101519.91;5071481;28;20044;-49
2023/09/29 00:43:32;;;;;;;11.10;6.25;;;;;;;20.41;58.20;101521.59;5072072;28;20400;-48
2023/09/29 00:45:58;;;;;;;10.15;5.57;;;;;;;20.37;57.83;101512.97;5071508;28;20020;-47
2023/09/29 00:48:23;;;;;;;8.48;5.30;;;;;;;20.27;58.08;101500.63;5057226;28;20052;-48
2023/09/29 00:50:48;;;;;;;13.63;6.68;;;;;;;20.40;57.90;101512.66;5075171;28;20056;-50
2023/09/29 00:53:16;;;;;;;9.57;5.68;;;;;;;20.39;57.81;101508.28;5072683;28;20039;-49
2023/09/29 00:55:44;;;;;;;9.50;6.10;;;;;;;20.39;58.08;101508.28;5074315;28;20031;-50
2023/09/29 00:58:12;;;;;;;10.47;6.50;;;;;;;20.39;58.00;101508.28;5058161;28;20032;-51
2023/09/29 01:00:40;;;;;;;9.18;5.55;;;;;;;20.39;58.25;101505.56;5070407;28;20265;-47
2023/09/29 01:03:09;;;;;;;9.80;6.50;;;;;;;20.36;58.27;101503.19;5076092;28;20311;-49
2023/09/29 01:05:39;;;;;;;9.82;6.03;;;;;;;20.38;58.17;101503.84;5068443;28;20265;-50
2023/09/29 01:08:08;;;;;;;8.38;5.40;;;;;;;20.38;57.79;101503.00;5073198;28;20033;-52
2023/09/29 01:10:35;;;;;;;9.10;5.15;;;;;;;20.38;57.89;101503.00;5072688;28;20119;-50
2023/09/29 01:13:01;;;;;;;8.90;5.75;;;;;;;20.37;57.75;101499.47;5072008;28;20021;-48
2023/09/29 01:15:26;;;;;;;7.47;4.68;;;;;;;20.37;58.15;101496.78;5074845;28;20029;-50
2023/09/29 01:17:53;;;;;;;10.60;5.05;;;;;;;20.33;58.15;101486.47;5071888;28;20051;-51
2023/09/29 01:20:27;;;;;;;9.13;5.03;;;;;;;20.37;57.73;101493.22;5075268;28;20024;-51
2023/09/29 01:22:52;;;;;;;8.48;4.80;;;;;;;20.37;58.10;101493.22;5068513;28;20017;-48
2023/09/29 01:25:18;;;;;;;8.23;4.93;;;;;;;20.38;58.17;101495.75;5071892;28;20056;-50
2023/09/29 01:27:43;;;;;;;6.97;4.43;;;;;;;20.37;58.09;101493.22;5074005;28;20146;-51
2023/09/29 01:30:19;;;;;;;7.00;4.60;;;;;;;20.15;57.97;101454.16;5068778;28;20050;-49
2023/09/29 01:32:52;;;;;;;7.47;5.05;;;;;;;20.36;58.00;101495.09;5075636;28;20078;-49
2023/09/29 01:35:18;;;;;;;8.02;4.78;;;;;;;20.37;58.20;101494.06;5077778;28;20034;-51
2023/09/29 01:37:47;;;;;;;9.60;5.05;;;;;;;20.36;57.75;101489.69;5055959;28;20039;-51
2023/09/29 01:40:13;;;;;;;9.02;4.75;;;;;;;20.25;57.95;101462.13;5071988;28;20084;-47
2023/09/29 01:42:40;;;;;;;8.52;4.25;;;;;;;20.36;57.81;101480.75;5071851;28;20021;-50
2023/09/29 01:45:07;;;;;;;9.40;4.80;;;;;;;20.35;57.97;101477.19;5068997;28;20050;-51
2023/09/29 01:47:34;;;;;;;8.50;4.85;;;;;;;20.31;58.05;101465.03;5075664;28;20071;-50
2023/09/29 01:50:00;;;;;;;9.07;4.75;;;;;;;20.36;57.87;101469.94;5072341;28;20040;-49
2023/09/29 01:52:25;;;;;;;7.03;4.30;;;;;;;20.34;57.71;101469.25;5070859;28;20044;-50
2023/09/29 01:54:50;;;;;;;6.05;4.00;;;;;;;20.34;57.83;101461.13;5071112;28;20021;-49
2023/09/29 01:57:16;;;;;;;7.18;4.03;;;;;;;20.32;58.16;101457.78;5073682;28;20025;-48
2023/09/29 01:59:41;;;;;;;7.18;4.47;;;;;;;20.16;58.03;101429.69;5072859;28;20125;-49
2023/09/29 02:02:06;;;;;;;5.85;4.13;;;;;;;20.29;58.03;101447.28;5072354;28;20041;-51
2023/09/29 02:04:32;;;;;;;5.90;4.10;;;;;;;20.19;57.95;101423.13;5069621;28;20025;-51
2023/09/29 02:06:57;;;;;;;5.80;4.43;;;;;;;20.34;58.01;101436.84;5070614;28;20047;-52
2023/09/29 02:09:23;;;;;;;6.50;3.95;;;;;;;20.33;58.22;101444.09;5070435;28;20024;-52
2023/09/29 02:11:49;;;;;;;6.95;4.22;;;;;;;20.33;57.87;101427.03;5070499;28;20049;-50
2023/09/29 02:14:14;;;;;;;9.20;4.35;;;;;;;20.33;57.95;101424.34;5075142;28;20483;-50
2023/09/29 02:16:40;;;;;;;7.13;4.20;;;;;;;20.33;58.08;101429.75;5069126;28;20097;-47
2023/09/29 02:19:07;;;;;;;6.10;3.60;;;;;;;20.32;57.88;101428.91;5071733;28;20024;-50
2023/09/29 02:21:32;;;;;;;7.25;3.65;;;;;;;20.32;57.77;101419.97;5073684;28;20029;-48
2023/09/29 02:23:58;;;;;;;6.50;3.53;;;;;;;20.32;57.85;101406.47;5072828;28;20025;-48
2023/09/29 02:26:25;;;;;;;6.25;4.13;;;;;;;20.32;58.04;101406.47;5074734;28;20111;-48
2023/09/29 02:28:50;;;;;;;6.72;3.92;;;;;;;20.30;57.93;101405.75;5069016;28;20024;-50
2023/09/29 02:31:16;;;;;;;4.88;3.40;;;;;;;20.32;57.80;101409.16;5071064;28;20116;-49
2023/09/29 02:33:41;;;;;;;7.00;3.90;;;;;;;20.29;57.80;101414.88;5072103;28;20032;-50
2023/09/29 02:36:07;;;;;;;8.05;4.13;;;;;;;20.32;57.81;101412.69;5068950;28;20035;-51
2023/09/29 02:38:33;;;;;;;5.78;3.78;;;;;;;20.32;57.68;101411.88;5070395;28;20070;-50
2023/09/29 02:40:59;;;;;;;7.47;4.45;;;;;;;20.31;58.04;101402.91;5074043;28;20387;-51
2023/09/29 02:43:29;;;;;;;5.65;3.40;;;;;;;20.32;57.79;101401.06;5070744;28;20076;-50
2023/09/29 02:45:54;;;;;;;6.95;4.07;;;;;;;20.32;57.88;101401.06;5070644;28;20065;-52
2023/09/29 02:48:20;;;;;;;7.00;3.70;;;;;;;20.31;57.65;101408.31;5073802;28;20081;-49
2023/09/29 02:50:45;;;;;;;6.70;3.67;;;;;;;20.31;58.05;101405.63;5070179;28;20036;-50
2023/09/29 02:53:10;;;;;;;5.82;3.75;;;;;;;20.31;58.08;101394.81;5075788;28;20462;-49
2023/09/29 02:55:37;;;;;;;5.65;3.33;;;;;;;20.31;57.80;101402.09;5075174;28;20037;-50
2023/09/29 02:58:03;;;;;;;5.32;3.35;;;;;;;20.26;57.97;101397.16;5055809;28;20044;-47
2023/09/29 03:00:29;;;;;;;7.50;4.05;;;;;;;20.25;57.96;101394.63;5075221;28;20029;-49
2023/09/29 03:02:54;;;;;;;6.15;3.95;;;;;;;20.31;58.10;101393.97;5075101;28;20036;-51
2023/09/29 03:05:21;;;;;;;8.93;4.18;;;;;;;20.26;58.05;101383.66;5070638;28;20029;-48
2023/09/29 03:07:46;;;;;;;6.72;3.40;;;;;;;20.31;58.14;101393.97;5076957;28;20029;-48
2023/09/29 03:10:15;;;;;;;4.80;3.25;;;;;;;20.30;58.14;101384.16;5074671;28;20031;-48
2023/09/29 03:12:42;;;;;;;5.90;3.50;;;;;;;20.30;57.95;101386.88;5067194;28;20028;-51
2023/09/29 03:15:09;;;;;;;6.03;3.45;;;;;;;20.30;57.73;101392.25;5073789;28;20602;-50
2023/09/29 03:17:35;;;;;;;7.88;3.60;;;;;;;20.30;57.92;101384.16;5053858;28;20021;-48
2023/09/29 03:20:00;;;;;;;7.03;3.58;;;;;;;20.29;57.68;101380.63;5071308;28;20063;-48
2023/09/29 03:22:25;;;;;;;6.85;3.88;;;;;;;20.28;57.94;101378.09;5070047;28;20037;-50
2023/09/29 03:24:51;;;;;;;5.78;3.13;;;;;;;20.29;57.88;101380.63;5076108;28;20036;-49
2023/09/29 03:27:17;;;;;;;5.47;3.40;;;;;;;20.29;58.18;101377.09;5062296;28;20028;-48
2023/09/29 03:29:43;;;;;;;5.85;2.85;;;;;;;20.28;57.87;101378.09;5070739;28;20028;-49
2023/09/29 03:32:09;;;;;;;5.70;3.53;;;;;;;20.29;57.96;101377.91;5073261;28;20431;-49
2023/09/29 03:34:34;;;;;;;7.40;4.53;;;;;;;20.29;58.06;101371.69;5075965;28;20060;-51
2023/09/29 03:36:59;;;;;;;6.55;3.90;;;;;;;20.29;57.84;101368.97;5071967;28;20051;-51
2023/09/29 03:39:25;;;;;;;6.40;3.22;;;;;;;20.29;57.80;101361.72;5070976;28;20154;-47
2023/09/29 03:41:51;;;;;;;5.90;3.88;;;;;;;20.28;58.02;101349.22;5069238;28;20033;-49
2023/09/29 03:44:16;;;;;;;5.38;3.25;;;;;;;20.28;57.70;101346.53;5070854;28;20045;-47
2023/09/29 03:46:41;;;;;;;4.80;2.97;;;;;;;20.28;57.84;101341.13;5072065;28;20046;-51
2023/09/29 03:49:10;;;;;;;5.53;3.53;;;;;;;20.26;57.90;101334.19;5075891;28;20069;-49
2023/09/29 03:51:35;;;;;;;4.20;2.70;;;;;;;20.28;57.76;101340.28;5072268;28;20025;-50
2023/09/29 03:54:00;;;;;;;5.32;3.25;;;;;;;20.27;57.68;101334.06;5070572;28;20474;-50
2023/09/29 03:56:26;;;;;;;4.53;3.08;;;;;;;20.21;58.05;101322.03;5075912;28;20060;-48
2023/09/29 03:58:55;;;;;;;5.90;3.55;;;;;;;20.28;58.16;101326.78;5070135;28;20021;-51
2023/09/29 04:01:21;;;;;;;;;;;;;;;20.27;58.07;101327.81;5074726;28;20016;-50
2023/09/29 04:03:46;;;;;;;5.90;3.17;;;;;;;20.27;58.17;101335.91;5072135;28;20067;-50
2023/09/29 04:06:11;;;;;;;5.25;2.97;;;;;;;20.26;58.08;101339.59;5072001;28;20025;-47
2023/09/29 04:08:36;;;;;;;5.72;2.97;;;;;;;20.26;57.97;101347.69;5074317;28;20455;-49
2023/09/29 04:11:03;;;;;;;3.58;2.60;;;;;;;20.22;57.76;101341.81;5075224;28;20021;-48
2023/09/29 04:13:28;;;;;;;4.53;2.92;;;;;;;20.25;58.05;101346.03;5058500;28;20115;-47
2023/09/29 04:15:53;;;;;;;5.03;3.33;;;;;;;20.25;58.18;101337.91;5074496;28;20028;-52
2023/09/29 04:18:19;;;;;;;5.35;3.15;;;;;;;20.25;57.92;101327.97;5073237;28;20025;-50
2023/09/29 04:20:44;;;;;;;4.90;3.03;;;;;;;20.26;57.87;101324.25;5071668;28;20024;-50
2023/09/29 04:23:09;;;;;;;5.05;3.20;;;;;;;20.12;58.02;101300.63;5074318;28;20592;-50
2023/09/29 04:25:35;;;;;;;4.93;2.95;;;;;;;20.25;57.76;101319.03;5075760;28;20028;-51
2023/09/29 04:28:00;;;;;;;4.80;2.97;;;;;;;20.05;57.84;101286.09;5072721;28;20025;-49
2023/09/29 04:30:25;;;;;;;5.22;2.90;;;;;;;20.22;57.69;101320.22;5074222;28;20067;-50
2023/09/29 04:32:52;;;;;;;4.15;2.88;;;;;;;20.20;58.12;101320.38;5073154;28;20025;-49
2023/09/29 04:35:18;;;;;;;5.07;2.90;;;;;;;20.12;57.83;101303.31;5073117;28;20024;-50
2023/09/29 04:37:44;;;;;;;4.10;2.78;;;;;;;20.25;58.15;101317.16;5074869;28;20036;-49
2023/09/29 04:40:09;;;;;;;4.45;2.80;;;;;;;20.24;57.71;101310.06;5075182;28;20104;-50
2023/09/29 04:42:36;;;;;;;7.43;3.92;;;;;;;20.23;57.79;101306.53;5071358;28;20021;-47
2023/09/29 04:45:01;;;;;;;4.65;2.97;;;;;;;20.09;58.06;101274.81;5074040;28;20041;-49
2023/09/29 04:47:27;;;;;;;4.00;3.03;;;;;;;20.24;57.73;101304.69;5074037;28;20031;-50
2023/09/29 04:49:53;;;;;;;5.55;2.80;;;;;;;20.25;58.15;101310.91;5074334;28;20020;-48
2023/09/29 04:52:18;;;;;;;4.70;3.25;;;;;;;20.25;58.04;101306.34;5060955;28;20024;-49
2023/09/29 04:54:43;;;;;;;5.35;3.17;;;;;;;20.24;57.73;101301.97;5067502;28;20033;-50
2023/09/29 04:57:09;;;;;;;3.80;3.00;;;;;;;20.17;57.85;101290.16;5072973;28;20386;-52
2023/09/29 04:59:34;;;;;;;3.35;2.53;;;;;;;20.23;58.00;101294.91;5074073;28;20063;-50
2023/09/29 05:02:00;;;;;;;3.38;2.78;;;;;;;20.11;57.94;101263.84;5072760;28;20027;-51
2023/09/29 05:04:25;;;;;;;5.13;3.53;;;;;;;20.23;57.66;101287.63;5072680;28;20447;-51
2023/09/29 05:06:51;;;;;;;3.80;2.80;;;;;;;20.23;58.17;101284.94;5072318;28;20423;-51
2023/09/29 05:09:18;;;;;;;4.93;2.88;;;;;;;20.23;58.09;101278.69;5068687;28;20085;-50
2023/09/29 05:11:43;;;;;;;4.57;2.95;;;;;;;20.23;57.77;101276.00;5075211;28;20050;-52
2023/09/29 05:14:08;;;;;;;3.58;2.53;;;;;;;20.23;58.04;101281.41;5072639;28;20025;-49
2023/09/29 05:16:34;;;;;;;4.72;2.97;;;;;;;20.20;58.04;101269.06;5057992;28;20252;-51
2023/09/29 05:19:00;;;;;;;5.05;2.83;;;;;;;20.23;58.00;101273.28;5072179;28;20036;-48
2023/09/29 05:21:26;;;;;;;4.55;3.05;;;;;;;20.22;57.98;101282.41;5071733;28;20097;-50
2023/09/29 05:23:52;;;;;;;7.05;2.75;;;;;;;20.19;58.00;101280.88;5074797;28;20035;-48
2023/09/29 05:26:17;;;;;;;4.13;2.83;;;;;;;20.21;57.99;101281.53;5071613;28;20566;-49
2023/09/29 05:28:43;;;;;;;3.97;2.67;;;;;;;20.22;57.88;101290.50;5070797;28;20059;-49
2023/09/29 05:31:09;;;;;;;4.50;2.60;;;;;;;20.22;57.73;101294.06;5069017;28;20025;-52
2023/09/29 05:33:34;;;;;;;5.57;3.13;;;;;;;20.22;58.21;101279.72;5068033;28;20032;-49
2023/09/29 05:36:00;;;;;;;3.00;2.47;;;;;;;20.21;58.04;101268.03;5067957;28;20503;-52
2023/09/29 05:38:25;;;;;;;3.15;2.45;;;;;;;20.22;57.92;101269.75;5073073;28;20063;-49
2023/09/29 05:40:51;;;;;;;3.38;2.60;;;;;;;20.22;57.63;101268.91;5069801;28;20031;-48
2023/09/29 05:43:17;;;;;;;3.65;2.47;;;;;;;20.21;57.69;101272.59;5068233;28;20036;-50
2023/09/29 05:45:44;;;;;;;4.25;2.70;;;;;;;20.21;57.91;101267.22;5073383;28;20036;-49
2023/09/29 05:48:09;;;;;;;4.80;2.92;;;;;;;20.21;58.01;101256.41;5054470;28;20025;-49
2023/09/29 05:50:35;;;;;;;3.60;2.45;;;;;;;20.18;57.91;101252.22;5065414;28;20128;-48
2023/09/29 05:53:01;;;;;;;3.75;2.53;;;;;;;20.20;58.13;101252.88;5071694;28;20105;-49
2023/09/29 05:55:27;;;;;;;3.58;2.55;;;;;;;20.21;58.13;101251.00;5068425;28;20036;-50
2023/09/29 05:57:52;;;;;;;4.90;2.83;;;;;;;20.21;57.85;101253.72;5070352;28;20060;-48
2023/09/29 06:00:19;;;;;;;3.80;2.67;;;;;;;20.20;57.86;101254.72;5071290;28;20029;-50
2023/09/29 06:02:45;;;;;;;3.40;2.42;;;;;;;20.20;57.75;101263.66;5068276;28;20055;-49
2023/09/29 06:05:11;;;;;;;4.28;2.72;;;;;;;20.20;57.98;101260.13;5072429;28;20534;-48
2023/09/29 06:07:37;;;;;;;4.38;3.05;;;;;;;20.21;58.04;101269.91;5073142;28;20606;-49
2023/09/29 06:10:04;;;;;;;4.35;2.88;;;;;;;20.20;57.98;101266.38;5070751;28;20021;-49
2023/09/29 06:12:29;;;;;;;3.05;2.22;;;;;;;20.20;57.92;101266.38;5070895;28;20028;-48
2023/09/29 06:14:54;;;;;;;4.15;2.78;;;;;;;20.21;57.88;101283.41;5073311;28;20020;-49
2023/09/29 06:17:20;;;;;;;3.80;2.55;;;;;;;20.20;57.72;101276.31;5067130;28;20032;-47
2023/09/29 06:19:45;;;;;;;3.65;2.40;;;;;;;20.20;57.87;101279.03;5070196;28;20024;-51
2023/09/29 06:22:10;;;;;;;4.15;2.55;;;;;;;20.19;57.98;101267.38;5071537;28;20044;-50
2023/09/29 06:24:35;;;;;;;3.97;2.70;;;;;;;20.19;58.07;101264.69;5075637;28;20036;-47
2023/09/29 06:27:01;;;;;;;3.28;2.38;;;;;;;20.20;58.11;101270.94;5075587;28;20449;-50
2023/09/29 06:29:26;;;;;;;3.60;2.42;;;;;;;20.20;57.68;101260.97;5074561;28;20028;-52
2023/09/29 06:31:53;;;;;;;3.47;2.58;;;;;;;20.20;57.71;101260.97;5073080;28;20036;-49
2023/09/29 06:34:19;;;;;;;4.38;2.15;;;;;;;20.19;58.03;101253.88;5057514;28;20401;-50
2023/09/29 06:36:44;;;;;;;4.00;2.13;;;;;;;20.21;58.12;101275.31;5073274;28;20060;-50
2023/09/29 06:39:09;;;;;;;3.83;2.50;;;;;;;20.22;58.08;101283.25;5073073;28;20032;-52
2023/09/29 06:41:36;;;;;;;3.22;2.15;;;;;;;20.22;57.92;101277.84;5076112;28;20035;-50
2023/09/29 06:44:02;;;;;;;4.57;2.28;;;;;;;20.23;58.28;101273.28;5076454;28;20084;-50
2023/09/29 06:46:27;;;;;;;4.55;2.70;;;;;;;20.24;57.83;101280.38;5075788;28;20031;-51
2023/09/29 06:48:53;;;;;;;4.47;2.25;;;;;;;20.24;58.25;101272.28;5075663;28;20044;-49
2023/09/29 06:51:18;;;;;;;4.07;2.30;;;;;;;20.23;57.85;101278.69;5070369;28;20024;-50
2023/09/29 06:53:43;;;;;;;3.58;1.90;;;;;;;20.23;57.92;101265.19;5078097;28;20079;-51
2023/09/29 06:56:08;;;;;;;3.58;2.30;;;;;;;20.23;58.09;101268.75;5074949;28;20029;-49
2023/09/29 06:58:34;;;;;;;3.58;2.40;;;;;;;20.23;58.12;101271.44;5044667;28;20052;-50
2023/09/29 07:00:59;;;;;;;3.08;1.92;;;;;;;20.23;58.10;101267.91;5077866;28;20492;-49
2023/09/29 07:03:26;;;;;;;3.67;2.30;;;;;;;20.23;58.04;101273.28;5048916;28;20021;-47
2023/09/29 07:05:51;;;;;;;2.80;2.25;;;;;;;20.22;57.83;101267.06;5079671;28;20082;-53
2023/09/29 07:08:17;;;;;;;4.32;3.00;;;;;;;20.17;58.27;101263.16;5066051;28;20024;-49
2023/09/29 07:10:43;;;;;;;5.55;2.40;;;;;;;20.06;58.08;101253.56;5073414;28;20021;-51
2023/09/29 07:13:08;;;;;;;4.10;2.30;;;;;;;20.21;58.20;101272.59;5070457;28;20033;-51
2023/09/29 07:15:34;;;;;;;3.83;2.20;;;;;;;20.23;58.16;101274.13;5077015;28;20066;-48
2023/09/29 07:17:59;;;;;;;3.22;2.22;;;;;;;20.24;58.25;101280.38;5074424;28;20024;-49
2023/09/29 07:20:24;;;;;;;3.35;2.08;;;;;;;20.25;58.33;101267.72;5075415;28;20032;-49
2023/09/29 07:22:51;;;;;;;4.38;2.80;;;;;;;20.25;58.42;101273.97;5076879;28;20038;-52
2023/09/29 07:25:18;;;;;;;2.97;2.15;;;;;;;20.25;58.38;101275.81;5072878;28;20053;-48
2023/09/29 07:27:44;;;;;;;3.90;2.47;;;;;;;20.25;58.21;101281.22;5075719;28;20073;-49
2023/09/29 07:30:09;;;;;;;5.20;2.45;;;;;;;20.14;58.27;101274.31;5075400;28;20518;-49
2023/09/29 07:32:35;;;;;;;4.15;2.22;;;;;;;20.23;58.15;101289.50;5069486;28;20032;-48
2023/09/29 07:35:00;;;;;;;3.13;2.22;;;;;;;20.26;58.42;101289.13;5076044;28;20032;-49
2023/09/29 07:37:26;;;;;;;4.57;2.40;;;;;;;20.25;58.58;101292.84;5073738;28;20024;-50
2023/09/29 07:39:51;;;;;;;3.45;2.20;;;;;;;20.26;58.46;101288.31;5077149;28;20090;-50
2023/09/29 07:42:17;;;;;;;6.00;2.47;;;;;;;20.23;58.37;101276.84;5070617;28;20048;-48
2023/09/29 07:44:43;;;;;;;2.95;2.00;;;;;;;20.25;58.08;101287.47;5074520;28;20052;-49
2023/09/29 07:47:08;;;;;;;2.88;2.15;;;;;;;20.26;58.22;101288.31;5069367;28;20082;-50
2023/09/29 07:49:40;;;;;;;3.85;2.30;;;;;;;20.25;58.60;101292.84;5070440;28;20108;-48
2023/09/29 07:52:05;;;;;;;3.95;2.05;;;;;;;20.26;58.14;101293.69;5075964;28;20025;-50
2023/09/29 07:54:30;;;;;;;3.10;2.10;;;;;;;20.22;58.32;101288.66;5076941;28;20046;-49
2023/09/29 07:56:56;;;;;;;2.78;2.05;;;;;;;20.25;58.23;101298.25;5068171;28;20021;-52
2023/09/29 07:59:22;;;;;;;3.47;2.50;;;;;;;20.25;58.40;101306.34;5071691;28;20036;-50
2023/09/29 08:01:49;;;;;;;4.07;2.25;;;;;;;20.25;58.19;101294.72;5072316;28;20039;-49
2023/09/29 08:04:15;;;;;;;4.38;2.78;;;;;;;20.26;58.16;101307.19;5068848;28;20036;-54
2023/09/29 08:06:40;;;;;;;3.13;2.40;;;;;;;20.26;58.44;101302.63;5075898;28;20077;-49
2023/09/29 08:09:06;;;;;;;3.45;2.20;;;;;;;20.26;58.16;101301.81;5052828;28;20025;-49
2023/09/29 08:11:32;;;;;;;3.90;2.42;;;;;;;20.26;58.62;101302.63;5073274;28;20055;-51
2023/09/29 08:13:57;;;;;;;2.75;1.80;;;;;;;20.26;58.20;101299.94;5071221;28;20067;-47
2023/09/29 08:16:24;;;;;;;4.32;1.90;;;;;;;20.26;58.56;101299.94;5063553;28;20097;-50
2023/09/29 08:18:49;;;;;;;3.65;2.05;;;;;;;20.26;58.18;101302.63;5073995;28;20129;-52
2023/09/29 08:21:14;;;;;;;4.15;2.45;;;;;;;20.25;58.31;101292.84;5074730;28;20088;-53
2023/09/29 08:23:39;;;;;;;6.07;2.83;;;;;;;20.26;58.67;101299.09;5072187;28;20368;-47
2023/09/29 08:26:05;;;;;;;3.05;1.90;;;;;;;20.25;58.40;101295.56;5073404;28;20033;-49
2023/09/29 08:28:30;;;;;;;3.83;2.67;;;;;;;20.26;58.33;101297.25;5068186;28;20483;-50
2023/09/29 08:30:55;;;;;;;3.63;2.58;;;;;;;20.21;58.76;101284.25;5072201;28;20043;-52
2023/09/29 08:33:21;;;;;;;3.03;1.80;;;;;;;20.17;58.50;101282.06;5073525;28;20044;-50
2023/09/29 08:35:46;;;;;;;4.55;2.30;;;;;;;20.26;58.62;101299.94;5073949;28;20653;-48
2023/09/29 08:38:11;;;;;;;2.85;2.03;;;;;;;20.27;58.33;101301.66;5073026;28;20028;-50
2023/09/29 08:40:40;;;;;;;2.80;2.08;;;;;;;20.27;58.76;101303.50;5076355;28;20039;-49
2023/09/29 08:43:06;;;;;;;;;;;;;;;20.28;58.67;101310.59;5074235;28;20471;-49
2023/09/29 08:45:32;;;;;;;2.30;1.83;;;;;;;20.26;58.81;101308.03;5075465;28;19909;-51
2023/09/29 08:47:59;;;;;;;3.60;1.95;;;;;;;20.27;58.77;101314.31;5052609;28;20036;-47
2023/09/29 08:50:24;;;;;;;2.60;1.88;;;;;;;20.24;58.56;101304.69;5075352;28;20050;-50
2023/09/29 08:52:51;;;;;;;4.57;2.10;;;;;;;20.01;58.68;101269.41;5074332;28;20037;-49
2023/09/29 08:55:19;;;;;;;2.78;2.03;;;;;;;20.28;58.73;101313.28;5071401;28;20036;-53
2023/09/29 08:57:45;;;;;;;3.42;1.77;;;;;;;20.28;58.56;101310.59;5073295;28;20120;-49
2023/09/29 09:00:15;;;;;;;3.85;1.92;;;;;;;20.27;58.52;101309.75;5074221;28;20025;-51
2023/09/29 09:02:44;;;;;;;3.03;1.98;;;;;;;20.27;58.75;101312.44;5069412;28;20025;-51
2023/09/29 09:05:14;;;;;;;5.05;2.40;;;;;;;20.28;58.96;101311.44;5075016;28;20028;-51
2023/09/29 09:07:41;;;;;;;3.65;2.00;;;;;;;20.18;58.65;101302.66;5072273;28;20032;-50
2023/09/29 09:10:07;;;;;;;4.63;1.98;;;;;;;20.28;58.97;101313.28;5072991;28;20048;-50
2023/09/29 09:12:33;;;;;;;4.05;2.00;;;;;;;20.28;58.88;101311.44;5074971;28;20079;-49
2023/09/29 09:14:59;;;;;;;3.88;2.25;;;;;;;20.28;58.88;101313.28;5071740;28;20175;-51
2023/09/29 09:17:25;;;;;;;3.55;1.90;;;;;;;20.13;58.76;101292.34;5079134;28;20017;-47
2023/09/29 09:19:54;;;;;;;4.78;2.88;;;;;;;20.29;58.90;101320.38;5073579;28;20032;-51
2023/09/29 09:22:25;;;;;;;3.45;2.05;;;;;;;20.18;58.69;101308.06;5071027;28;20029;-49
2023/09/29 09:24:57;;;;;;;3.30;2.03;;;;;;;20.22;58.88;101306.72;5072943;28;20040;-49
2023/09/29 09:27:22;;;;;;;5.32;2.90;;;;;;;20.29;58.90;101323.91;5071137;28;20029;-47
2023/09/29 09:29:47;;;;;;;3.22;2.00;;;;;;;20.29;58.65;101323.91;5067560;28;20017;-48
2023/09/29 09:32:14;;;;;;;3.13;2.00;;;;;;;20.29;58.98;101329.31;5075244;28;20418;-51
2023/09/29 09:34:41;;;;;;;3.25;2.47;;;;;;;20.29;58.71;101323.91;5071502;28;20028;-50
2023/09/29 09:37:07;;;;;;;2.95;2.00;;;;;;;20.29;58.80;101323.06;5067056;28;20029;-50
2023/09/29 09:39:34;;;;;;;3.00;2.03;;;;;;;20.30;58.80;101322.06;5071229;28;20025;-49
2023/09/29 09:42:03;;;;;;;2.05;1.60;;;;;;;20.30;59.12;101328.28;5070073;28;20036;-50
2023/09/29 09:44:28;;;;;;;;;;;;;;;20.31;59.11;101330.00;5076629;28;20075;-49
2023/09/29 09:47:00;;;;;;;2.78;1.92;;;;;;;20.31;58.98;101331.88;5072162;28;19908;-50
2023/09/29 09:49:34;;;;;;;2.63;1.70;;;;;;;20.31;59.25;101331.88;5074783;28;20021;-50
2023/09/29 09:52:05;;;;;;;2.38;1.80;;;;;;;20.31;59.25;101334.56;5058710;28;20024;-48
2023/09/29 09:54:33;;;;;;;3.10;1.83;;;;;;;20.18;59.13;101314.31;5070431;28;20025;-50
2023/09/29 09:57:09;;;;;;;2.33;1.70;;;;;;;20.20;58.90;101327.63;5060790;28;20024;-49
2023/09/29 09:59:35;;;;;;;3.22;1.83;;;;;;;20.32;58.84;101342.50;5058301;28;20028;-52
2023/09/29 10:02:03;;;;;;;1.98;1.42;;;;;;;20.26;58.88;101326.09;5072444;28;20078;-49
2023/09/29 10:04:32;;;;;;;4.07;1.95;;;;;;;20.33;59.17;101341.47;5058522;28;20084;-52
2023/09/29 10:06:59;;;;;;;;;;;;;;;20.34;59.01;101343.16;5073217;28;20028;-51
2023/09/29 10:09:25;;;;;;;2.20;1.67;;;;;;;20.35;58.67;101355.66;5059701;28;19912;-50
2023/09/29 10:11:58;;;;;;;2.50;1.58;;;;;;;20.34;58.70;101342.31;5074634;28;20025;-49
2023/09/29 10:14:23;;;;;;;3.10;1.60;;;;;;;20.34;58.95;101345.84;5076104;28;20108;-48
2023/09/29 10:16:48;;;;;;;2.38;1.75;;;;;;;20.36;59.12;101345.72;5075472;28;20029;-51
2023/09/29 10:19:17;;;;;;;2.17;1.50;;;;;;;20.22;58.88;101326.47;5075711;28;20025;-50
2023/09/29 10:21:46;;;;;;;2.22;1.70;;;;;;;20.36;59.14;101349.25;5073588;28;20053;-51
2023/09/29 10:24:23;;;;;;;2.40;1.85;;;;;;;20.36;59.24;101353.81;5077093;28;20025;-47
2023/09/29 10:26:49;;;;;;;4.15;1.70;;;;;;;20.37;59.25;101345.53;5073843;28;20024;-48
2023/09/29 10:29:18;;;;;;;2.65;1.77;;;;;;;20.26;58.93;101326.94;5073377;28;20028;-50
2023/09/29 10:31:44;;;;;;;2.95;2.03;;;;;;;20.38;58.86;101358.00;5074826;28;20080;-48
2023/09/29 10:34:17;;;;;;;2.95;1.95;;;;;;;20.39;59.00;101348.91;5073038;28;20020;-47
2023/09/29 10:36:43;;;;;;;2.83;1.90;;;;;;;20.39;58.79;101350.75;5075760;28;20020;-48
2023/09/29 10:39:08;;;;;;;2.70;1.60;;;;;;;20.38;59.12;101349.91;5075948;28;20033;-50
2023/09/29 10:41:34;;;;;;;1.67;1.45;;;;;;;20.40;59.01;101356.00;5075829;28;20380;-49
2023/09/29 10:44:00;;;;;;;2.72;1.60;;;;;;;20.40;58.79;101358.72;5075812;28;20053;-52
2023/09/29 10:46:25;;;;;;;1.73;1.45;;;;;;;20.40;59.17;101357.88;5074832;28;20025;-48
2023/09/29 10:48:55;;;;;;;3.10;1.63;;;;;;;20.33;58.96;101337.94;5075531;28;20024;-49
2023/09/29 10:51:22;;;;;;;2.30;1.40;;;;;;;20.42;58.78;101363.94;5070236;28;20056;-49
2023/09/29 10:53:47;;;;;;;2.63;1.60;;;;;;;20.41;58.88;101360.38;5077127;28;20037;-48
2023/09/29 10:56:20;;;;;;;2.10;1.67;;;;;;;20.36;59.00;101351.94;5075051;28;20035;-50
2023/09/29 10:58:45;;;;;;;2.97;1.80;;;;;;;20.41;58.81;101360.38;5051975;28;20025;-49
2023/09/29 11:01:11;;;;;;;2.50;1.90;;;;;;;20.42;59.13;101361.22;5075433;28;20092;-51
2023/09/29 11:03:37;;;;;;;2.25;1.40;;;;;;;20.41;58.85;101365.78;5057934;28;20040;-51
2023/09/29 11:06:11;;;;;;;2.63;1.67;;;;;;;20.39;58.91;101362.44;5075445;28;20531;-48
2023/09/29 11:08:42;;;;;;;1.83;1.45;;;;;;;20.40;59.20;101365.97;5076004;28;20024;-52
2023/09/29 11:11:09;;;;;;;2.80;1.67;;;;;;;20.43;58.90;101371.00;5057965;28;20387;-51
2023/09/29 11:13:37;;;;;;;2.63;1.38;;;;;;;20.29;58.91;101350.06;5073318;28;20032;-49
2023/09/29 11:16:04;;;;;;;3.33;1.80;;;;;;;20.42;58.89;101374.72;5075421;28;20031;-51
2023/09/29 11:18:34;;;;;;;2.33;1.58;;;;;;;20.43;59.09;101381.81;5074229;28;20534;-50
2023/09/29 11:21:05;;;;;;;2.30;1.70;;;;;;;20.42;58.86;101383.66;5079287;28;20135;-47
2023/09/29 11:23:48;;;;;;;2.17;1.52;;;;;;;20.40;58.84;101395.69;5057577;28;20025;-47